Time;durP1;ratioP1;P1;durP2;ratioP2;P2;SDS_P1;SDS_P2;PMS_P1;PMS_P2;Temp;Humidity;BMP_temperature;BMP_pressure;BME280_temperature;BME280_humidity;BME280_pressure;Samples;Min_cycle;Max_cycle;Signal;HPM_P1;HPM_P2
2023/07/06 00:01:25;;;;;;;16.38;7.50;;;9.60;99.90;;;;;;6124643;23;20017;-87
2023/07/06 00:03:55;;;;;;;17.27;7.43;;;9.60;99.90;;;;;;6149373;23;20044;-87
2023/07/06 00:06:21;;;;;;;15.38;8.32;;;10.60;99.90;;;;;;6124685;23;20519;-86
2023/07/06 00:08:47;;;;;;;15.43;7.43;;;9.70;99.90;;;;;;6146609;23;20024;-86
2023/07/06 00:11:13;;;;;;;15.20;7.60;;;9.70;99.90;;;;;;6122327;23;20071;-85
2023/07/06 00:13:39;;;;;;;14.40;7.28;;;9.70;99.90;;;;;;6121706;23;20041;-86
2023/07/06 00:16:05;;;;;;;18.08;8.75;;;10.60;99.90;;;;;;6120298;23;20013;-86
2023/07/06 00:18:32;;;;;;;16.58;8.00;;;9.80;99.90;;;;;;6120613;23;20017;-86
2023/07/06 00:20:58;;;;;;;15.88;7.53;;;9.80;99.90;;;;;;6121730;23;20020;-86
2023/07/06 00:23:24;;;;;;;17.20;8.27;;;9.80;99.90;;;;;;6121299;23;20293;-86
2023/07/06 00:25:50;;;;;;;19.27;8.60;;;9.80;99.90;;;;;;6121471;23;20021;-85
2023/07/06 00:28:24;;;;;;;17.90;8.55;;;9.80;99.90;;;;;;6119963;23;20056;-86
2023/07/06 00:30:55;;;;;;;22.02;8.55;;;9.70;99.90;;;;;;6120372;23;20032;-86
2023/07/06 00:33:23;;;;;;;20.08;9.57;;;9.80;99.90;;;;;;6120660;23;20009;-85
2023/07/06 00:35:49;;;;;;;16.60;8.32;;;9.80;99.90;;;;;;6121073;23;20017;-86
2023/07/06 00:38:18;;;;;;;17.65;9.48;;;9.80;99.90;;;;;;6121614;23;20013;-86
2023/07/06 00:40:50;;;;;;;19.35;9.43;;;10.00;99.90;;;;;;6119498;23;20012;-85
2023/07/06 00:43:28;;;;;;;16.55;9.32;;;9.80;99.90;;;;;;6119816;23;20017;-87
2023/07/06 00:45:58;;;;;;;20.60;10.40;;;9.80;99.90;;;;;;6119950;23;20720;-86
2023/07/06 00:48:36;;;;;;;27.27;11.90;;;9.80;99.90;;;;;;6119018;23;20352;-86
2023/07/06 00:51:21;;;;;;;21.77;12.30;;;9.80;99.90;;;;;;6119672;23;20714;-86
2023/07/06 00:53:51;;;;;;;17.80;10.40;;;9.80;99.90;;;;;;6118700;23;20016;-86
2023/07/06 00:56:23;;;;;;;23.42;11.02;;;9.80;99.90;;;;;;6118031;23;20478;-87
2023/07/06 00:58:52;;;;;;;22.58;11.25;;;9.80;99.90;;;;;;6119479;23;20020;-87
2023/07/06 01:01:19;;;;;;;19.85;10.70;;;9.90;99.90;;;;;;6118485;23;20028;-86
2023/07/06 01:03:52;;;;;;;27.63;13.18;;;9.80;99.90;;;;;;6144438;23;20479;-87
2023/07/06 01:06:37;;;;;;;;;;;9.90;99.90;;;;;;6121533;23;20021;-86
2023/07/06 01:09:07;;;;;;;21.73;11.05;;;9.90;99.90;;;;;;6125019;23;20428;-85
2023/07/06 01:11:37;;;;;;;23.73;10.75;;;9.80;99.90;;;;;;6121347;23;20029;-85
2023/07/06 01:14:03;;;;;;;20.08;12.20;;;9.80;99.90;;;;;;6122303;23;20017;-86
2023/07/06 01:16:39;;;;;;;27.00;12.65;;;10.30;99.90;;;;;;6120683;23;20016;-87
2023/07/06 01:19:24;;;;;;;26.05;13.68;;;9.90;99.90;;;;;;6147685;23;20017;-86
2023/07/06 01:22:04;;;;;;;22.02;11.68;;;9.90;99.90;;;;;;6146427;23;20045;-86
2023/07/06 01:24:48;;;;;;;26.70;11.70;;;7.70;99.90;;;;;;6121340;23;20013;-85
2023/07/06 01:27:14;;;;;;;21.75;12.07;;;12.00;99.90;;;;;;6110588;23;1147533;-86
2023/07/06 01:29:59;;;;;;;25.45;12.93;;;7.30;99.90;;;;;;6147269;23;20377;-85
2023/07/06 01:32:30;;;;;;;25.35;12.95;;;9.90;99.90;;;;;;6146968;23;20039;-86
2023/07/06 01:35:02;;;;;;;24.88;12.50;;;9.90;99.90;;;;;;6145440;23;20096;-86
2023/07/06 01:37:34;;;;;;;;;;;9.90;99.90;;;;;;6147279;23;20009;-86
2023/07/06 01:40:01;;;;;;;25.60;13.00;;;9.90;99.90;;;;;;6121885;23;19923;-86
2023/07/06 01:42:32;;;;;;;27.83;12.10;;;9.80;99.90;;;;;;6146848;23;20244;-86
2023/07/06 01:45:04;;;;;;;24.33;12.20;;;10.50;99.90;;;;;;6170974;23;20021;-86
2023/07/06 01:47:32;;;;;;;;;;;9.70;99.90;;;;;;6171701;23;20103;-86
2023/07/06 01:50:01;;;;;;;22.75;11.50;;;9.70;99.90;;;;;;6122068;23;20543;-85
2023/07/06 01:53:07;;;;;;;24.13;12.45;;;9.70;99.90;;;;;;6147096;23;20052;-86
2023/07/06 01:55:43;;;;;;;28.15;12.95;;;9.70;99.90;;;;;;6146347;23;20499;-86
2023/07/06 01:58:23;;;;;;;27.02;11.80;;;9.60;99.90;;;;;;6122868;23;20051;-85
2023/07/06 02:00:59;;;;;;;25.88;12.50;;;9.60;99.90;;;;;;6145860;23;20158;-86
2023/07/06 02:03:26;;;;;;;26.98;11.73;;;9.60;99.90;;;;;;6146949;23;20403;-86
2023/07/06 02:05:52;;;;;;;26.80;11.63;;;9.60;99.90;;;;;;6171972;23;20021;-87
2023/07/06 02:08:19;;;;;;;25.95;11.82;;;9.60;99.90;;;;;;6146883;23;20019;-86
2023/07/06 02:10:46;;;;;;;21.30;10.93;;;9.60;99.90;;;;;;6122434;23;20013;-86
2023/07/06 02:13:12;;;;;;;25.38;11.70;;;9.70;99.90;;;;;;6146291;23;20546;-87
2023/07/06 02:15:40;;;;;;;26.00;12.63;;;9.70;99.90;;;;;;6170832;23;20051;-86
2023/07/06 02:18:06;;;;;;;27.45;12.20;;;9.80;99.90;;;;;;6145664;23;20052;-85
2023/07/06 02:20:31;;;;;;;23.33;11.32;;;9.90;99.90;;;;;;6122393;23;20009;-86
2023/07/06 02:22:57;;;;;;;20.80;11.27;;;10.00;99.90;;;;;;6146687;23;20017;-86
2023/07/06 02:25:23;;;;;;;22.00;11.60;;;10.10;99.90;;;;;;6123076;23;20016;-86
2023/07/06 02:27:49;;;;;;;21.75;11.15;;;10.10;99.90;;;;;;6141604;23;20122;-86
2023/07/06 02:30:15;;;;;;;25.92;11.32;;;10.10;99.90;;;;;;6150456;23;20027;-86
2023/07/06 02:32:41;;;;;;;22.27;11.82;;;10.10;99.90;;;;;;6152641;23;20013;-86
2023/07/06 02:35:09;;;;;;;25.15;11.55;;;10.10;99.90;;;;;;6152719;23;20015;-86
2023/07/06 02:37:38;;;;;;;26.45;11.27;;;10.10;99.90;;;;;;6153153;23;20001;-86
2023/07/06 02:40:07;;;;;;;20.67;11.48;;;10.20;99.90;;;;;;6176313;23;20518;-87
2023/07/06 02:42:34;;;;;;;23.63;12.02;;;10.20;99.90;;;;;;6176539;23;20429;-86
2023/07/06 02:45:00;;;;;;;25.38;11.68;;;10.30;99.90;;;;;;6151362;23;20055;-86
2023/07/06 02:47:26;;;;;;;22.88;11.98;;;10.30;99.90;;;;;;6151982;23;20448;-86
2023/07/06 02:49:52;;;;;;;28.00;12.57;;;10.50;99.90;;;;;;6150946;23;20023;-86
2023/07/06 02:52:18;;;;;;;24.33;12.77;;;10.80;99.90;;;;;;6151280;23;20451;-87
2023/07/06 02:54:44;;;;;;;24.58;12.35;;;10.50;99.90;;;;;;6177739;23;20013;-86
2023/07/06 02:57:09;;;;;;;25.90;12.88;;;10.50;99.90;;;;;;6151704;23;20043;-85
2023/07/06 02:59:35;;;;;;;25.65;12.75;;;10.50;99.90;;;;;;6177418;23;20830;-86
2023/07/06 03:02:01;;;;;;;22.15;12.38;;;10.50;99.90;;;;;;6176616;23;20355;-86
2023/07/06 03:04:28;;;;;;;26.92;12.60;;;10.40;99.90;;;;;;6152137;23;20055;-86
2023/07/06 03:06:55;;;;;;;28.10;12.75;;;10.40;99.90;;;;;;6151409;23;20020;-85
2023/07/06 03:09:23;;;;;;;19.33;11.88;;;10.40;99.90;;;;;;6151774;23;20063;-86
2023/07/06 03:11:49;;;;;;;23.05;11.50;;;10.30;99.90;;;;;;6151529;23;20078;-86
2023/07/06 03:14:15;;;;;;;26.95;12.77;;;10.20;99.90;;;;;;6175772;23;20280;-86
2023/07/06 03:16:42;;;;;;;23.67;11.77;;;10.20;99.90;;;;;;6151551;23;20020;-86
2023/07/06 03:19:14;;;;;;;24.65;12.73;;;10.20;99.90;;;;;;6151102;23;20047;-86
2023/07/06 03:21:40;;;;;;;28.25;13.40;;;10.20;99.90;;;;;;6176267;23;20123;-86
2023/07/06 03:24:08;;;;;;;25.20;11.20;;;10.20;99.90;;;;;;6151094;23;20069;-92
2023/07/06 03:26:35;;;;;;;20.80;11.48;;;10.10;99.90;;;;;;6154512;23;20106;-91
2023/07/06 03:29:03;;;;;;;28.52;13.40;;;10.10;99.90;;;;;;6178920;23;20082;-91
2023/07/06 03:31:29;;;;;;;26.02;12.77;;;9.90;99.90;;;;;;6154464;23;20048;-92
2023/07/06 03:33:56;;;;;;;25.83;12.48;;;10.00;99.90;;;;;;6155607;23;20024;-91
2023/07/06 03:36:22;;;;;;;25.75;12.75;;;10.00;99.90;;;;;;6155619;23;20009;-91
2023/07/06 03:38:49;;;;;;;27.73;13.23;;;10.10;99.90;;;;;;6157909;23;20047;-91
2023/07/06 03:41:17;;;;;;;29.00;13.05;;;10.10;99.90;;;;;;6159827;23;20013;-91
2023/07/06 03:43:44;;;;;;;27.33;13.45;;;10.20;99.90;;;;;;6159908;23;20120;-92
2023/07/06 03:46:10;;;;;;;25.27;12.80;;;10.20;99.90;;;;;;6160482;23;20024;-90
2023/07/06 03:48:36;;;;;;;24.25;13.57;;;10.20;99.90;;;;;;6185073;23;20013;-91
2023/07/06 03:51:03;;;;;;;32.13;13.82;;;10.30;99.90;;;;;;6160200;23;20016;-91
2023/07/06 03:53:31;;;;;;;27.95;14.48;;;10.30;99.90;;;;;;6160533;23;20012;-90
2023/07/06 03:55:57;;;;;;;29.63;14.20;;;10.40;99.90;;;;;;6161016;23;20001;-92
2023/07/06 03:58:23;;;;;;;32.47;14.68;;;10.40;99.90;;;;;;6184886;23;20107;-91
2023/07/06 04:00:49;;;;;;;32.08;15.70;;;10.50;99.90;;;;;;6159947;23;20020;-92
2023/07/06 04:03:15;;;;;;;30.95;15.18;;;10.60;99.90;;;;;;6160008;23;20044;-91
2023/07/06 04:05:47;;;;;;;33.10;15.25;;;10.70;99.90;;;;;;6159183;23;20325;-92
2023/07/06 04:08:19;;;;;;;29.92;16.80;;;10.80;99.90;;;;;;6159174;23;20013;-92
2023/07/06 04:10:45;;;;;;;33.80;16.80;;;10.90;99.90;;;;;;6159150;23;20020;-91
2023/07/06 04:13:13;;;;;;;30.88;15.82;;;11.20;99.90;;;;;;6158767;23;20143;-92
2023/07/06 04:15:42;;;;;;;34.33;16.02;;;11.00;99.90;;;;;;6159013;23;20023;-91
2023/07/06 04:18:09;;;;;;;32.10;16.23;;;11.10;99.90;;;;;;6158814;23;20024;-92
2023/07/06 04:20:34;;;;;;;30.05;15.43;;;11.20;99.90;;;;;;6160245;23;20009;-91
2023/07/06 04:23:00;;;;;;;32.28;16.65;;;11.30;99.90;;;;;;6183564;23;20017;-90
2023/07/06 04:25:30;;;;;;;31.33;17.20;;;11.40;99.90;;;;;;6158477;23;20055;-91
2023/07/06 04:28:05;;;;;;;33.65;16.70;;;11.40;99.90;;;;;;5886876;23;1298956;-91
2023/07/06 04:30:33;;;;;;;30.05;16.10;;;11.40;99.90;;;;;;6107166;23;20020;-91
2023/07/06 04:33:00;;;;;;;37.83;16.33;;;11.70;99.90;;;;;;6158949;23;20074;-91
2023/07/06 04:35:26;;;;;;;35.92;16.52;;;11.50;99.90;;;;;;6183389;23;20016;-91
2023/07/06 04:37:53;;;;;;;46.25;17.33;;;11.60;99.90;;;;;;6159793;23;20055;-90
2023/07/06 04:40:20;;;;;;;40.50;18.33;;;11.60;99.90;;;;;;6160514;23;20085;-90
2023/07/06 04:42:48;;;;;;;33.58;16.15;;;12.50;99.90;;;;;;6160908;23;20098;-90
2023/07/06 04:45:16;;;;;;;38.38;15.93;;;11.80;99.90;;;;;;6162201;23;20009;-90
2023/07/06 04:47:44;;;;;;;25.75;15.45;;;11.80;99.90;;;;;;6160540;23;20457;-91
2023/07/06 04:50:17;;;;;;;32.15;15.52;;;11.80;99.90;;;;;;6161685;23;20027;-89
2023/07/06 04:52:46;;;;;;;27.10;15.13;;;11.90;99.90;;;;;;6161318;23;20046;-91
2023/07/06 04:55:13;;;;;;;26.95;15.63;;;11.90;99.90;;;;;;6161833;23;20032;-91
2023/07/06 04:57:39;;;;;;;25.25;15.23;;;11.90;99.90;;;;;;6187090;23;20813;-92
2023/07/06 05:00:16;;;;;;;27.45;13.95;;;12.80;99.90;;;;;;6156687;23;20016;-90
2023/07/06 05:02:42;;;;;;;30.38;14.82;;;12.00;99.90;;;;;;6180321;23;20013;-90
2023/07/06 05:05:11;;;;;;;28.38;14.98;;;12.00;99.90;;;;;;6156711;23;20087;-88
2023/07/06 05:07:41;;;;;;;30.70;16.25;;;12.10;99.90;;;;;;6160777;23;20012;-91
2023/07/06 05:10:08;;;;;;;27.88;14.95;;;12.10;99.90;;;;;;6160817;23;20012;-91
2023/07/06 05:12:35;;;;;;;26.63;14.40;;;12.20;99.90;;;;;;6159649;23;20043;-91
2023/07/06 05:15:02;;;;;;;29.27;14.40;;;9.90;99.90;;;;;;6160798;23;20013;-90
2023/07/06 05:17:28;;;;;;;24.92;14.10;;;12.40;99.90;;;;;;6159295;23;20083;-91
2023/07/06 05:19:54;;;;;;;28.65;15.80;;;12.50;99.90;;;;;;6160296;23;20745;-91
2023/07/06 05:22:20;;;;;;;27.23;14.98;;;12.50;99.90;;;;;;6186285;23;20013;-89
2023/07/06 05:24:46;;;;;;;31.40;15.13;;;12.60;99.90;;;;;;6160445;23;20028;-90
2023/07/06 05:27:12;;;;;;;28.02;14.93;;;12.60;99.90;;;;;;6160932;23;20016;-91
2023/07/06 05:29:38;;;;;;;30.00;15.23;;;12.80;99.90;;;;;;6185083;23;20059;-91
2023/07/06 05:32:04;;;;;;;29.10;15.75;;;13.10;99.90;;;;;;6161022;23;20455;-91
2023/07/06 05:34:30;;;;;;;29.40;15.95;;;13.50;99.90;;;;;;6185880;23;20316;-92
2023/07/06 05:36:55;;;;;;;29.83;16.15;;;13.80;99.90;;;;;;6160758;23;20024;-90
2023/07/06 05:39:21;;;;;;;29.58;15.02;;;13.90;99.90;;;;;;6186424;23;20017;-91
2023/07/06 05:41:47;;;;;;;20.88;13.63;;;14.00;99.90;;;;;;6160777;23;20056;-92
2023/07/06 05:44:14;;;;;;;26.83;14.80;;;14.40;99.90;;;;;;6161641;23;20020;-91
2023/07/06 05:46:40;;;;;;;25.48;15.02;;;15.30;99.90;;;;;;6160434;23;20067;-91
2023/07/06 05:49:05;;;;;;;20.92;14.02;;;16.50;99.90;;;;;;6159733;23;20016;-92
2023/07/06 05:51:31;;;;;;;24.58;14.00;;;18.40;99.90;;;;;;6161718;23;20016;-92
2023/07/06 05:53:58;;;;;;;18.23;11.45;;;20.00;99.90;;;;;;6186740;23;20005;-91
2023/07/06 05:56:25;;;;;;;15.88;8.00;;;21.40;99.90;;;;;;6161901;23;20017;-90
2023/07/06 05:58:51;;;;;;;9.65;7.07;;;22.60;99.90;;;;;;6161128;23;20552;-91
2023/07/06 06:01:23;;;;;;;11.30;6.47;;;23.30;99.90;;;;;;6162580;23;20074;-92
2023/07/06 06:03:49;;;;;;;10.15;6.25;;;23.70;99.90;;;;;;6162022;23;20016;-92
2023/07/06 06:06:15;;;;;;;11.18;5.28;;;24.10;99.90;;;;;;6163591;23;20075;-92
2023/07/06 06:08:40;;;;;;;11.52;6.07;;;25.20;99.90;;;;;;6163485;23;20013;-93
2023/07/06 06:11:10;;;;;;;10.18;4.80;;;26.00;99.90;;;;;;6165293;23;20016;-92
2023/07/06 06:13:35;;;;;;;9.95;4.82;;;26.80;99.90;;;;;;6191032;23;20257;-92
2023/07/06 06:16:03;;;;;;;10.82;5.05;;;27.60;98.10;;;;;;6164646;23;20016;-92
2023/07/06 06:18:29;;;;;;;11.00;4.72;;;28.30;95.50;;;;;;6163478;23;20017;-92
2023/07/06 06:20:58;;;;;;;8.25;4.28;;;28.80;93.80;;;;;;6188161;23;20333;-91
2023/07/06 06:23:24;;;;;;;8.20;4.40;;;29.50;92.40;;;;;;6162907;23;20044;-94
2023/07/06 06:25:50;;;;;;;11.13;3.70;;;30.10;89.50;;;;;;6163745;23;20024;-92
2023/07/06 06:28:16;;;;;;;11.15;4.13;;;30.50;86.50;;;;;;6161002;23;20015;-92
2023/07/06 06:30:42;;;;;;;7.85;3.53;;;30.90;82.50;;;;;;6186220;23;20000;-92
2023/07/06 06:33:08;;;;;;;9.25;4.00;;;31.10;80.20;;;;;;6186980;23;20020;-92
2023/07/06 06:35:34;;;;;;;10.85;3.00;;;31.40;78.70;;;;;;6186079;23;20047;-92
2023/07/06 06:38:03;;;;;;;12.38;4.35;;;31.80;76.30;;;;;;6160731;23;20338;-93
2023/07/06 06:40:31;;;;;;;9.85;4.35;;;31.90;73.90;;;;;;6162081;23;20016;-91
2023/07/06 06:42:57;;;;;;;7.72;3.67;;;32.40;72.80;;;;;;6186336;23;20016;-91
2023/07/06 06:45:29;;;;;;;7.85;3.55;;;33.00;70.90;;;;;;6160761;23;20023;-91
2023/07/06 06:47:55;;;;;;;11.95;4.35;;;33.30;70.00;;;;;;6160679;23;20067;-92
2023/07/06 06:50:21;;;;;;;10.95;3.40;;;33.60;68.30;;;;;;6160829;23;20017;-92
2023/07/06 06:52:49;;;;;;;9.63;3.13;;;33.90;67.40;;;;;;6158689;23;20067;-92
2023/07/06 06:55:15;;;;;;;7.65;3.33;;;34.20;66.00;;;;;;6182471;23;20008;-91
2023/07/06 06:57:43;;;;;;;8.55;3.30;;;34.50;65.00;;;;;;6157977;23;20098;-91
2023/07/06 07:00:10;;;;;;;7.00;2.83;;;35.00;64.80;;;;;;6157320;23;20016;-92
2023/07/06 07:02:39;;;;;;;6.72;2.63;;;35.40;64.00;;;;;;6181348;23;20016;-93
2023/07/06 07:05:06;;;;;;;9.57;2.88;;;33.20;61.60;;;;;;6156896;23;20019;-92
2023/07/06 07:07:37;;;;;;;7.13;2.33;;;35.20;62.00;;;;;;6157575;23;20012;-93
2023/07/06 07:10:09;;;;;;;6.65;2.50;;;35.20;61.20;;;;;;6158810;23;20021;-92
2023/07/06 07:12:39;;;;;;;8.13;3.42;;;35.40;60.60;;;;;;6161034;23;20572;-90
2023/07/06 07:15:08;;;;;;;7.45;2.72;;;35.60;60.10;;;;;;6160056;23;20110;-92
2023/07/06 07:17:33;;;;;;;8.15;2.83;;;35.70;59.30;;;;;;6160215;23;20019;-93
2023/07/06 07:20:02;;;;;;;8.10;2.78;;;35.80;58.30;;;;;;6160794;23;20020;-92
2023/07/06 07:22:28;;;;;;;7.95;2.30;;;36.30;58.00;;;;;;6161212;23;20013;-93
2023/07/06 07:24:54;;;;;;;10.55;1.95;;;36.70;57.80;;;;;;6160303;23;20035;-92
2023/07/06 07:27:20;;;;;;;8.85;2.28;;;36.90;57.50;;;;;;6160721;23;20016;-92
2023/07/06 07:29:47;;;;;;;6.13;2.50;;;37.10;56.70;;;;;;6160582;23;20017;-94
2023/07/06 07:32:20;;;;;;;6.30;1.65;;;37.30;55.60;;;;;;6185259;23;20052;-91
2023/07/06 07:35:01;;;;;;;9.25;3.08;;;37.50;55.30;;;;;;6163033;23;20013;-93
2023/07/06 07:40:58;;;;;;;6.88;2.10;;;37.80;54.60;;;;;;6069133;23;20018;-94
2023/07/06 07:43:25;;;;;;;6.38;2.05;;;37.50;54.80;;;;;;6161438;23;20023;-91
2023/07/06 07:45:56;;;;;;;10.13;2.22;;;37.70;54.00;;;;;;6160602;23;20012;-93
2023/07/06 07:48:25;;;;;;;7.38;1.80;;;38.70;54.10;;;;;;6160516;23;20448;-91
2023/07/06 07:50:55;;;;;;;7.72;2.17;;;38.30;52.90;;;;;;6159474;23;20504;-92
2023/07/06 07:53:24;;;;;;;6.87;1.90;;;38.30;50.50;;;;;;6159207;23;20019;-93
2023/07/06 07:55:58;;;;;;;8.57;2.00;;;38.70;51.70;;;;;;6161358;23;20251;-93
2023/07/06 07:58:24;;;;;;;6.60;1.80;;;38.40;51.60;;;;;;6161264;23;20028;-93
2023/07/06 08:00:50;;;;;;;3.65;1.42;;;38.00;52.60;;;;;;6159990;23;20759;-93
2023/07/06 08:03:17;;;;;;;7.80;1.92;;;37.00;51.30;;;;;;6152707;23;20012;-88
2023/07/06 08:05:43;;;;;;;4.80;1.02;;;35.40;52.60;;;;;;6151670;23;20018;-92
2023/07/06 08:08:12;;;;;;;6.60;1.92;;;34.30;53.70;;;;;;6155329;23;20016;-93
2023/07/06 08:10:45;;;;;;;6.38;1.75;;;34.60;52.90;;;;;;6153562;23;20016;-90
2023/07/06 08:13:23;;;;;;;8.27;1.33;;;35.80;53.50;;;;;;6160066;23;20027;-94
2023/07/06 08:29:47;;;;;;;6.72;1.23;;;36.60;49.90;;;;;;5924332;24;20025;-94
2023/07/06 08:37:00;;;;;;;2.40;0.80;;;35.30;49.90;;;;;;5900020;24;20063;-89
2023/07/06 08:39:31;;;;;;;4.32;1.08;;;38.80;52.00;;;;;;5865596;23;20026;-88
2023/07/06 09:11:05;;;;;;;4.90;1.25;;;33.70;53.10;;;;;;6192886;22;1505139;-88
2023/07/06 09:13:46;;;;;;;4.93;0.65;;;36.90;53.60;;;;;;6174136;23;20501;-87
2023/07/06 09:16:13;;;;;;;4.93;0.80;;;36.60;49.90;;;;;;6177419;23;20017;-90
2023/07/06 09:18:42;;;;;;;5.25;0.82;;;37.00;49.60;;;;;;6175535;23;20026;-87
2023/07/06 09:21:16;;;;;;;6.75;0.95;;;36.40;49.80;;;;;;6178389;23;20001;-89
2023/07/06 09:23:47;;;;;;;5.03;0.60;;;35.40;47.80;;;;;;6178751;23;20016;-88
2023/07/06 09:26:38;;;;;;;5.32;0.50;;;36.10;46.60;;;;;;6178818;23;20001;-90
2023/07/06 09:29:25;;;;;;;4.25;0.73;;;35.20;47.50;;;;;;6180058;23;20356;-89
2023/07/06 09:32:33;;;;;;;5.43;1.13;;;34.70;48.20;;;;;;6180930;23;20020;-88
2023/07/06 09:35:35;;;;;;;4.13;1.20;;;32.70;46.90;;;;;;6092503;23;20022;-90
2023/07/06 09:38:27;;;;;;;6.63;1.40;;;33.70;50.50;;;;;;6079405;23;20005;-89
2023/07/06 09:41:01;;;;;;;6.60;0.90;;;33.50;51.00;;;;;;6095701;23;20024;-90
2023/07/06 09:43:39;;;;;;;5.15;0.90;;;29.60;51.20;;;;;;6097209;23;20006;-90
2023/07/06 09:46:10;;;;;;;4.00;1.15;;;30.40;54.30;;;;;;6096940;23;20466;-90
2023/07/06 09:48:57;;;;;;;3.22;0.90;;;29.90;56.50;;;;;;6096196;23;20144;-89
2023/07/06 09:51:45;;;;;;;5.15;0.70;;;29.00;56.50;;;;;;6095146;23;20029;-88
2023/07/06 09:54:30;;;;;;;4.15;0.45;;;27.30;56.40;;;;;;6095976;23;20523;-88
2023/07/06 09:57:19;;;;;;;5.57;0.95;;;27.40;58.30;;;;;;6094927;23;20066;-90
2023/07/06 09:59:48;;;;;;;3.10;0.50;;;26.40;60.30;;;;;;6093641;23;20017;-87
2023/07/06 10:02:59;;;;;;;4.00;0.68;;;25.60;60.10;;;;;;6093172;23;20125;-90
2023/07/06 10:06:11;;;;;;;3.17;0.60;;;24.10;64.30;;;;;;6060763;23;20018;-88
2023/07/06 10:09:24;;;;;;;4.82;0.63;;;28.10;66.60;;;;;;6186194;23;20016;-90
2023/07/06 10:12:54;;;;;;;2.17;0.47;;;24.10;62.70;;;;;;6167526;23;20025;-89
2023/07/06 10:16:17;;;;;;;;;;;;;;;;;;;;;
2023/07/06 10:23:25;;;;;;;5.47;1.20;;;30.40;57.80;;;;;;6191698;23;20032;-88
2023/07/06 10:26:17;;;;;;;1.52;0.40;;;28.70;57.40;;;;;;6139206;23;20052;-91
2023/07/06 10:28:50;;;;;;;;;;;27.70;57.80;;;;;;6140228;23;20004;-92
2023/07/06 10:31:28;;;;;;;2.05;0.40;;;26.20;59.40;;;;;;6138615;23;19916;-93
2023/07/06 10:34:15;;;;;;;2.58;0.50;;;25.80;61.20;;;;;;6138739;23;20017;-91
2023/07/06 10:36:45;;;;;;;3.63;0.60;;;25.20;62.50;;;;;;6163039;23;20013;-89
2023/07/06 10:39:28;;;;;;;3.05;0.40;;;23.50;62.20;;;;;;6138753;23;20029;-89
2023/07/06 10:42:19;;;;;;;4.80;0.43;;;26.30;63.10;;;;;;6139416;23;20013;-91
2023/07/06 10:44:52;;;;;;;3.28;0.50;;;26.80;60.80;;;;;;6139823;23;20023;-92
2023/07/06 10:48:36;;;;;;;3.78;0.90;;;27.60;62.30;;;;;;6142343;23;20036;-93
2023/07/06 10:51:17;;;;;;;4.25;0.80;;;28.10;60.20;;;;;;6106296;23;20010;-91
2023/07/06 10:54:30;;;;;;;1.85;0.43;;;27.00;56.30;;;;;;6085832;23;20037;-91
2023/07/06 11:04:15;;;;;;;3.25;0.57;;;28.00;61.80;;;;;;6102663;23;20006;-91
2023/07/06 11:07:05;;;;;;;2.15;0.50;;;27.90;63.60;;;;;;6062191;23;20043;-93
2023/07/06 11:10:35;;;;;;;3.55;0.82;;;26.60;64.60;;;;;;6099068;23;20022;-92
2023/07/06 11:13:17;;;;;;;3.13;0.40;;;26.50;62.70;;;;;;6191319;23;20340;-89
2023/07/06 11:19:01;;;;;;;1.80;0.50;;;26.40;63.20;;;;;;6093573;23;20020;-90
2023/07/06 11:21:52;;;;;;;3.28;0.63;;;26.00;64.00;;;;;;6169352;23;20004;-92
2023/07/06 11:24:48;;;;;;;3.15;0.50;;;27.20;63.20;;;;;;6166326;23;20020;-92
2023/07/06 11:36:06;;;;;;;5.32;1.67;;;24.40;68.00;;;;;;6130154;23;20028;-94
2023/07/06 11:42:31;;;;;;;2.70;0.80;;;22.60;72.90;;;;;;5992761;23;20051;-94
2023/07/06 11:45:03;;;;;;;2.47;0.43;;;22.90;70.60;;;;;;6097552;23;20037;-93
2023/07/06 11:48:18;;;;;;;6.18;1.08;;;20.20;69.70;;;;;;6187287;23;20052;-94
2023/07/06 11:50:46;;;;;;;5.00;0.70;;;23.30;69.20;;;;;;6162452;23;20024;-93
2023/07/06 11:56:33;;;;;;;2.95;0.60;;;23.30;72.10;;;;;;6178244;23;20415;-94
2023/07/06 11:59:03;;;;;;;4.20;0.75;;;21.30;71.30;;;;;;6162675;23;20020;-93
2023/07/06 12:01:46;;;;;;;3.23;0.40;;;23.10;72.50;;;;;;6162718;23;20005;-93
2023/07/06 12:04:26;;;;;;;3.00;0.80;;;23.70;73.80;;;;;;6164639;23;20244;-92
2023/07/06 12:07:22;;;;;;;1.13;0.30;;;23.70;73.00;;;;;;6162941;23;20048;-94
2023/07/06 12:09:53;;;;;;;2.30;0.70;;;24.90;73.40;;;;;;6164001;23;20163;-92
2023/07/06 12:12:23;;;;;;;2.75;0.50;;;23.50;75.40;;;;;;6162671;23;20017;-91
2023/07/06 12:26:11;;;;;;;2.17;0.50;;;23.80;74.30;;;;;;6215717;23;20011;-94
2023/07/06 12:32:30;;;;;;;3.67;0.52;;;20.80;73.70;;;;;;6200200;23;20024;-93
2023/07/06 12:38:35;;;;;;;2.88;0.63;;;23.20;75.00;;;;;;6183472;23;20035;-93
2023/07/06 12:41:28;;;;;;;4.28;0.75;;;22.60;78.50;;;;;;6156898;23;20020;-91
2023/07/06 12:43:55;;;;;;;1.63;0.60;;;22.20;76.20;;;;;;6131785;23;20070;-92
2023/07/06 12:46:31;;;;;;;;;;;;;;;;;;;;;
2023/07/06 12:49:20;;;;;;;4.07;0.70;;;21.70;78.40;;;;;;6183405;23;20024;-91
2023/07/06 12:55:44;;;;;;;4.10;0.45;;;21.50;77.40;;;;;;5970944;23;20026;-92
2023/07/06 12:58:27;;;;;;;4.65;0.40;;;22.50;78.30;;;;;;6009858;23;20029;-93
2023/07/06 13:01:04;;;;;;;1.02;0.40;;;22.50;75.80;;;;;;6010405;23;20029;-92
2023/07/06 13:03:31;;;;;;;1.30;0.68;;;22.60;75.80;;;;;;6011278;23;20128;-94
2023/07/06 13:05:57;;;;;;;2.30;0.55;;;22.70;76.50;;;;;;6009949;23;20015;-91
2023/07/06 13:08:24;;;;;;;3.15;0.35;;;22.80;75.70;;;;;;6033057;23;20098;-94
2023/07/06 13:11:03;;;;;;;2.92;0.50;;;22.70;76.20;;;;;;6032426;23;20035;-93
2023/07/06 13:13:37;;;;;;;3.75;0.50;;;25.20;77.20;;;;;;6012636;23;20114;-95
2023/07/06 13:16:17;;;;;;;3.53;0.40;;;22.40;74.80;;;;;;6015406;23;20023;-93
2023/07/06 13:18:45;;;;;;;3.63;0.60;;;22.60;74.10;;;;;;6012393;23;20118;-93
2023/07/06 13:21:17;;;;;;;3.55;0.45;;;22.60;74.60;;;;;;6010188;23;20520;-93
2023/07/06 13:23:44;;;;;;;3.63;0.32;;;22.60;74.00;;;;;;6112733;23;20014;-95
2023/07/06 13:26:11;;;;;;;3.38;0.50;;;22.40;73.50;;;;;;6119815;23;20077;-94
2023/07/06 13:28:38;;;;;;;4.03;0.60;;;22.40;73.40;;;;;;6134653;23;20028;-94
2023/07/06 13:31:06;;;;;;;2.38;0.47;;;22.50;74.30;;;;;;6138034;23;20022;-94
2023/07/06 13:33:40;;;;;;;2.63;0.60;;;19.80;73.20;;;;;;6124195;23;20025;-92
2023/07/06 13:36:18;;;;;;;5.78;0.63;;;22.30;72.80;;;;;;6100173;23;20018;-95
2023/07/06 13:38:46;;;;;;;5.07;0.60;;;22.30;72.50;;;;;;6135227;23;20320;-90
2023/07/06 13:41:28;;;;;;;1.50;0.38;;;22.30;73.80;;;;;;6146468;23;20033;-91
2023/07/06 13:43:55;;;;;;;4.78;0.75;;;22.30;75.40;;;;;;6146627;23;20028;-92
2023/07/06 13:46:22;;;;;;;4.78;0.80;;;22.30;75.40;;;;;;6147168;23;20025;-91
2023/07/06 13:48:49;;;;;;;4.13;1.00;;;22.40;75.90;;;;;;6148529;23;20020;-94
2023/07/06 13:51:15;;;;;;;2.38;0.55;;;22.60;75.00;;;;;;6144674;23;20052;-94
2023/07/06 13:53:42;;;;;;;3.22;1.13;;;22.80;74.10;;;;;;6126653;23;20028;-93
2023/07/06 13:56:15;;;;;;;4.60;0.93;;;22.90;73.90;;;;;;6124554;23;20025;-91
2023/07/06 13:58:44;;;;;;;7.03;1.90;;;22.90;75.20;;;;;;6124313;23;20024;-92
2023/07/06 14:01:19;;;;;;;4.70;1.40;;;22.80;74.40;;;;;;6125744;23;20022;-93
2023/07/06 14:03:45;;;;;;;4.63;0.80;;;22.90;75.50;;;;;;6124120;23;20029;-91
2023/07/06 14:06:14;;;;;;;3.97;0.73;;;23.00;73.90;;;;;;6125876;23;20014;-93
2023/07/06 14:08:40;;;;;;;3.05;0.52;;;26.00;75.30;;;;;;6125538;23;20053;-92
2023/07/06 14:11:06;;;;;;;3.28;0.70;;;23.50;73.80;;;;;;6151054;23;20060;-91
2023/07/06 14:13:33;;;;;;;2.90;0.47;;;23.60;74.20;;;;;;6125898;23;20018;-93
2023/07/06 14:16:02;;;;;;;3.90;0.85;;;23.70;74.20;;;;;;6127542;23;20072;-92
2023/07/06 14:18:28;;;;;;;3.60;0.50;;;23.70;73.50;;;;;;6127231;23;20013;-91
2023/07/06 14:21:05;;;;;;;4.22;0.68;;;21.30;72.30;;;;;;6128742;23;20339;-94
2023/07/06 14:23:31;;;;;;;3.25;0.73;;;23.40;72.70;;;;;;6127986;23;20013;-92
2023/07/06 14:25:57;;;;;;;1.50;0.40;;;23.30;73.30;;;;;;6132570;23;20021;-92
2023/07/06 14:28:26;;;;;;;4.60;1.10;;;23.10;73.90;;;;;;6127309;23;20120;-93
2023/07/06 14:30:53;;;;;;;4.85;1.05;;;23.00;73.60;;;;;;6128212;23;20013;-92
2023/07/06 14:33:19;;;;;;;3.08;0.57;;;22.90;71.90;;;;;;6156099;23;20076;-92
2023/07/06 14:35:46;;;;;;;2.78;0.93;;;21.60;73.30;;;;;;6132355;23;20096;-90
2023/07/06 14:38:11;;;;;;;3.72;0.77;;;22.70;73.10;;;;;;6160144;23;20005;-92
2023/07/06 14:40:39;;;;;;;4.72;0.90;;;22.70;72.80;;;;;;6133939;23;20166;-96
2023/07/06 14:43:06;;;;;;;6.30;1.52;;;23.00;73.60;;;;;;6133490;23;20020;-92
2023/07/06 14:45:36;;;;;;;2.85;0.90;;;23.50;75.50;;;;;;6130571;23;20704;-92
2023/07/06 14:48:02;;;;;;;4.03;0.85;;;22.40;73.40;;;;;;6131613;23;20021;-93
2023/07/06 14:50:28;;;;;;;3.58;1.02;;;22.60;77.80;;;;;;6132120;23;20017;-93
2023/07/06 14:52:57;;;;;;;3.42;1.00;;;22.80;76.60;;;;;;6130412;23;20018;-92